sensor_id;sensor_type;location;lat;lon;timestamp;temperature;humidity
18839;DHT22;9548;56.920;14.804;2023-05-15T00:00:33;8.60;99.90
18839;DHT22;9548;56.920;14.804;2023-05-15T00:03:02;8.60;99.90
18839;DHT22;9548;56.920;14.804;2023-05-15T00:05:29;8.70;99.90
18839;DHT22;9548;56.920;14.804;2023-05-15T00:07:56;8.80;99.90
18839;DHT22;9548;56.920;14.804;2023-05-15T00:10:22;8.90;99.90
18839;DHT22;9548;56.920;14.804;2023-05-15T00:12:49;8.90;99.90
18839;DHT22;9548;56.920;14.804;2023-05-15T00:15:18;9.00;99.90
18839;DHT22;9548;56.920;14.804;2023-05-15T00:17:44;9.10;99.90
18839;DHT22;9548;56.920;14.804;2023-05-15T00:20:11;9.20;99.90
18839;DHT22;9548;56.920;14.804;2023-05-15T00:22:38;9.20;99.90
18839;DHT22;9548;56.920;14.804;2023-05-15T00:25:06;9.30;99.90
18839;DHT22;9548;56.920;14.804;2023-05-15T00:27:33;9.40;99.90
18839;DHT22;9548;56.920;14.804;2023-05-15T00:30:00;9.40;99.90
18839;DHT22;9548;56.920;14.804;2023-05-15T00:32:29;9.50;99.90
18839;DHT22;9548;56.920;14.804;2023-05-15T00:34:56;9.50;99.90
18839;DHT22;9548;56.920;14.804;2023-05-15T00:37:23;9.60;99.90
18839;DHT22;9548;56.920;14.804;2023-05-15T00:39:49;9.70;99.90
18839;DHT22;9548;56.920;14.804;2023-05-15T00:42:17;9.70;99.90
18839;DHT22;9548;56.920;14.804;2023-05-15T00:44:44;9.70;99.90
18839;DHT22;9548;56.920;14.804;2023-05-15T00:47:13;9.80;99.90
18839;DHT22;9548;56.920;14.804;2023-05-15T00:49:43;9.80;99.90
18839;DHT22;9548;56.920;14.804;2023-05-15T00:52:11;9.90;99.90
18839;DHT22;9548;56.920;14.804;2023-05-15T00:54:38;9.90;99.90
18839;DHT22;9548;56.920;14.804;2023-05-15T00:57:05;9.90;99.90
18839;DHT22;9548;56.920;14.804;2023-05-15T00:59:33;9.90;99.90
18839;DHT22;9548;56.920;14.804;2023-05-15T01:02:01;10.00;99.90
18839;DHT22;9548;56.920;14.804;2023-05-15T01:04:28;10.00;99.90
18839;DHT22;9548;56.920;14.804;2023-05-15T01:06:56;10.10;99.90
18839;DHT22;9548;56.920;14.804;2023-05-15T01:09:24;10.10;99.90
18839;DHT22;9548;56.920;14.804;2023-05-15T01:11:54;10.10;99.90
18839;DHT22;9548;56.920;14.804;2023-05-15T01:14:23;10.00;99.90
18839;DHT22;9548;56.920;14.804;2023-05-15T01:16:49;10.00;99.90
18839;DHT22;9548;56.920;14.804;2023-05-15T01:19:16;10.00;99.90
18839;DHT22;9548;56.920;14.804;2023-05-15T01:22:21;9.90;99.90
18839;DHT22;9548;56.920;14.804;2023-05-15T01:25:10;9.90;99.90
18839;DHT22;9548;56.920;14.804;2023-05-15T01:27:47;9.90;99.90
18839;DHT22;9548;56.920;14.804;2023-05-15T01:30:18;9.90;99.90
18839;DHT22;9548;56.920;14.804;2023-05-15T01:32:53;9.80;99.90
18839;DHT22;9548;56.920;14.804;2023-05-15T01:35:24;9.90;99.90
18839;DHT22;9548;56.920;14.804;2023-05-15T01:37:59;9.80;99.90
18839;DHT22;9548;56.920;14.804;2023-05-15T01:40:29;9.80;99.90
18839;DHT22;9548;56.920;14.804;2023-05-15T01:43:02;9.80;99.90
18839;DHT22;9548;56.920;14.804;2023-05-15T01:45:32;9.80;99.90
18839;DHT22;9548;56.920;14.804;2023-05-15T01:48:00;9.80;99.90
18839;DHT22;9548;56.920;14.804;2023-05-15T01:50:29;9.80;99.90
18839;DHT22;9548;56.920;14.804;2023-05-15T01:53:00;9.80;99.90
18839;DHT22;9548;56.920;14.804;2023-05-15T01:55:28;9.80;99.90
18839;DHT22;9548;56.920;14.804;2023-05-15T01:57:59;9.80;99.90
18839;DHT22;9548;56.920;14.804;2023-05-15T02:00:27;9.70;99.90
18839;DHT22;9548;56.920;14.804;2023-05-15T02:02:55;9.80;99.90
18839;DHT22;9548;56.920;14.804;2023-05-15T02:05:24;9.70;99.90
18839;DHT22;9548;56.920;14.804;2023-05-15T02:07:52;9.70;99.90
18839;DHT22;9548;56.920;14.804;2023-05-15T02:10:19;9.70;99.90
18839;DHT22;9548;56.920;14.804;2023-05-15T02:12:46;9.70;99.90
18839;DHT22;9548;56.920;14.804;2023-05-15T02:15:16;9.70;99.90
18839;DHT22;9548;56.920;14.804;2023-05-15T02:17:43;9.70;99.90
18839;DHT22;9548;56.920;14.804;2023-05-15T02:20:11;9.70;99.90
18839;DHT22;9548;56.920;14.804;2023-05-15T02:22:38;9.70;99.90
18839;DHT22;9548;56.920;14.804;2023-05-15T02:25:06;9.70;99.90
18839;DHT22;9548;56.920;14.804;2023-05-15T02:27:40;9.70;99.90
18839;DHT22;9548;56.920;14.804;2023-05-15T02:30:22;9.70;99.90
18839;DHT22;9548;56.920;14.804;2023-05-15T02:33:01;9.60;99.90
18839;DHT22;9548;56.920;14.804;2023-05-15T02:35:32;9.60;99.90
18839;DHT22;9548;56.920;14.804;2023-05-15T02:38:11;9.60;99.90
18839;DHT22;9548;56.920;14.804;2023-05-15T02:40:43;9.70;99.90
18839;DHT22;9548;56.920;14.804;2023-05-15T02:43:12;9.70;99.90
18839;DHT22;9548;56.920;14.804;2023-05-15T02:45:41;9.70;99.90
18839;DHT22;9548;56.920;14.804;2023-05-15T02:48:12;9.60;99.90
18839;DHT22;9548;56.920;14.804;2023-05-15T02:50:39;9.70;99.90
18839;DHT22;9548;56.920;14.804;2023-05-15T02:53:06;9.80;99.90
18839;DHT22;9548;56.920;14.804;2023-05-15T02:55:34;9.90;99.90
18839;DHT22;9548;56.920;14.804;2023-05-15T02:58:02;9.90;99.90
18839;DHT22;9548;56.920;14.804;2023-05-15T03:00:29;10.00;99.90
18839;DHT22;9548;56.920;14.804;2023-05-15T03:02:57;10.00;99.90
18839;DHT22;9548;56.920;14.804;2023-05-15T03:05:24;10.10;99.90
18839;DHT22;9548;56.920;14.804;2023-05-15T03:07:51;10.10;99.90
18839;DHT22;9548;56.920;14.804;2023-05-15T03:10:18;10.10;99.90
18839;DHT22;9548;56.920;14.804;2023-05-15T03:12:45;10.20;99.90
18839;DHT22;9548;56.920;14.804;2023-05-15T03:15:12;10.20;99.90
18839;DHT22;9548;56.920;14.804;2023-05-15T03:17:39;10.30;99.90
18839;DHT22;9548;56.920;14.804;2023-05-15T03:20:08;10.20;99.90
18839;DHT22;9548;56.920;14.804;2023-05-15T03:22:36;10.30;99.90
18839;DHT22;9548;56.920;14.804;2023-05-15T03:25:03;10.30;99.90
18839;DHT22;9548;56.920;14.804;2023-05-15T03:27:30;10.40;99.90
18839;DHT22;9548;56.920;14.804;2023-05-15T03:29:57;10.40;99.90
18839;DHT22;9548;56.920;14.804;2023-05-15T03:32:24;10.50;99.90
18839;DHT22;9548;56.920;14.804;2023-05-15T03:34:50;10.40;99.90
18839;DHT22;9548;56.920;14.804;2023-05-15T03:37:19;10.50;99.90
18839;DHT22;9548;56.920;14.804;2023-05-15T03:39:46;10.50;99.90
18839;DHT22;9548;56.920;14.804;2023-05-15T03:42:12;10.60;99.90
18839;DHT22;9548;56.920;14.804;2023-05-15T03:44:39;10.60;99.90
18839;DHT22;9548;56.920;14.804;2023-05-15T03:47:06;10.70;99.90
18839;DHT22;9548;56.920;14.804;2023-05-15T03:49:33;10.80;99.90
18839;DHT22;9548;56.920;14.804;2023-05-15T03:52:00;10.80;99.90
18839;DHT22;9548;56.920;14.804;2023-05-15T03:54:29;10.90;99.90
18839;DHT22;9548;56.920;14.804;2023-05-15T03:56:56;10.90;99.90
18839;DHT22;9548;56.920;14.804;2023-05-15T03:59:23;10.90;99.90
18839;DHT22;9548;56.920;14.804;2023-05-15T04:01:50;11.00;99.90
18839;DHT22;9548;56.920;14.804;2023-05-15T04:04:17;11.00;99.90
18839;DHT22;9548;56.920;14.804;2023-05-15T04:06:43;11.10;99.90
18839;DHT22;9548;56.920;14.804;2023-05-15T04:09:10;11.10;99.90
18839;DHT22;9548;56.920;14.804;2023-05-15T04:11:39;11.20;99.90
18839;DHT22;9548;56.920;14.804;2023-05-15T04:14:05;11.20;99.90
18839;DHT22;9548;56.920;14.804;2023-05-15T04:16:32;11.20;99.90
18839;DHT22;9548;56.920;14.804;2023-05-15T04:18:59;11.30;99.90
18839;DHT22;9548;56.920;14.804;2023-05-15T04:21:26;11.40;99.90
18839;DHT22;9548;56.920;14.804;2023-05-15T04:23:53;11.50;99.90
18839;DHT22;9548;56.920;14.804;2023-05-15T04:26:20;11.50;99.90
18839;DHT22;9548;56.920;14.804;2023-05-15T04:28:48;11.50;99.90
18839;DHT22;9548;56.920;14.804;2023-05-15T04:31:15;11.50;99.90
18839;DHT22;9548;56.920;14.804;2023-05-15T04:33:42;11.50;99.90
18839;DHT22;9548;56.920;14.804;2023-05-15T04:36:09;11.60;99.90
18839;DHT22;9548;56.920;14.804;2023-05-15T04:38:35;11.60;99.90
18839;DHT22;9548;56.920;14.804;2023-05-15T04:41:02;11.60;99.90
18839;DHT22;9548;56.920;14.804;2023-05-15T04:43:29;11.70;99.90
18839;DHT22;9548;56.920;14.804;2023-05-15T04:45:58;11.80;99.90
18839;DHT22;9548;56.920;14.804;2023-05-15T04:48:25;11.90;99.90
18839;DHT22;9548;56.920;14.804;2023-05-15T04:50:52;12.00;99.90
18839;DHT22;9548;56.920;14.804;2023-05-15T04:53:19;12.10;99.90
18839;DHT22;9548;56.920;14.804;2023-05-15T04:55:45;12.20;99.90
18839;DHT22;9548;56.920;14.804;2023-05-15T04:58:15;12.40;99.90
18839;DHT22;9548;56.920;14.804;2023-05-15T05:00:42;12.50;99.90
18839;DHT22;9548;56.920;14.804;2023-05-15T05:03:10;12.60;99.90
18839;DHT22;9548;56.920;14.804;2023-05-15T05:05:37;12.70;99.90
18839;DHT22;9548;56.920;14.804;2023-05-15T05:08:04;12.80;99.90
18839;DHT22;9548;56.920;14.804;2023-05-15T05:10:31;12.80;99.90
18839;DHT22;9548;56.920;14.804;2023-05-15T05:13:01;12.80;99.90
18839;DHT22;9548;56.920;14.804;2023-05-15T05:15:28;12.90;99.90
18839;DHT22;9548;56.920;14.804;2023-05-15T05:17:55;13.00;99.90
18839;DHT22;9548;56.920;14.804;2023-05-15T05:20:23;13.20;99.90
18839;DHT22;9548;56.920;14.804;2023-05-15T05:22:50;13.50;99.90
18839;DHT22;9548;56.920;14.804;2023-05-15T05:25:17;13.70;99.90
18839;DHT22;9548;56.920;14.804;2023-05-15T05:27:44;13.90;99.90
18839;DHT22;9548;56.920;14.804;2023-05-15T05:30:11;14.00;99.90
18839;DHT22;9548;56.920;14.804;2023-05-15T05:32:38;14.20;99.90
18839;DHT22;9548;56.920;14.804;2023-05-15T05:35:08;14.20;99.90
18839;DHT22;9548;56.920;14.804;2023-05-15T05:37:37;14.20;99.90
18839;DHT22;9548;56.920;14.804;2023-05-15T05:40:04;14.20;99.90
18839;DHT22;9548;56.920;14.804;2023-05-15T05:42:33;14.10;99.90
18839;DHT22;9548;56.920;14.804;2023-05-15T05:45:00;14.00;99.90
18839;DHT22;9548;56.920;14.804;2023-05-15T05:47:26;13.90;99.90
18839;DHT22;9548;56.920;14.804;2023-05-15T05:49:53;13.70;99.90
18839;DHT22;9548;56.920;14.804;2023-05-15T05:52:20;13.70;99.90
18839;DHT22;9548;56.920;14.804;2023-05-15T05:54:48;13.60;99.90
18839;DHT22;9548;56.920;14.804;2023-05-15T05:57:15;13.50;99.90
18839;DHT22;9548;56.920;14.804;2023-05-15T05:59:42;13.50;99.90
18839;DHT22;9548;56.920;14.804;2023-05-15T06:02:10;13.50;99.90
18839;DHT22;9548;56.920;14.804;2023-05-15T06:04:37;13.50;99.90
18839;DHT22;9548;56.920;14.804;2023-05-15T06:07:04;13.50;99.90
18839;DHT22;9548;56.920;14.804;2023-05-15T06:09:31;13.70;99.90
18839;DHT22;9548;56.920;14.804;2023-05-15T06:12:00;13.80;99.90
18839;DHT22;9548;56.920;14.804;2023-05-15T06:14:29;14.00;99.90
18839;DHT22;9548;56.920;14.804;2023-05-15T06:16:55;14.20;99.90
18839;DHT22;9548;56.920;14.804;2023-05-15T06:19:22;14.30;99.90
18839;DHT22;9548;56.920;14.804;2023-05-15T06:21:49;14.60;99.90
18839;DHT22;9548;56.920;14.804;2023-05-15T06:24:16;14.90;99.90
18839;DHT22;9548;56.920;14.804;2023-05-15T06:26:43;15.20;99.90
18839;DHT22;9548;56.920;14.804;2023-05-15T06:29:12;15.60;99.90
18839;DHT22;9548;56.920;14.804;2023-05-15T06:31:38;15.90;99.90
18839;DHT22;9548;56.920;14.804;2023-05-15T06:34:05;16.30;99.90
18839;DHT22;9548;56.920;14.804;2023-05-15T06:36:32;16.50;99.90
18839;DHT22;9548;56.920;14.804;2023-05-15T06:38:59;16.80;99.90
18839;DHT22;9548;56.920;14.804;2023-05-15T06:41:26;17.00;99.90
18839;DHT22;9548;56.920;14.804;2023-05-15T06:43:53;17.10;99.90
18839;DHT22;9548;56.920;14.804;2023-05-15T06:46:22;17.20;99.90
18839;DHT22;9548;56.920;14.804;2023-05-15T06:48:48;17.40;99.90
18839;DHT22;9548;56.920;14.804;2023-05-15T06:51:15;17.50;99.90
18839;DHT22;9548;56.920;14.804;2023-05-15T06:53:42;17.40;99.90
18839;DHT22;9548;56.920;14.804;2023-05-15T06:56:09;17.40;99.90
18839;DHT22;9548;56.920;14.804;2023-05-15T06:58:36;17.40;99.90
18839;DHT22;9548;56.920;14.804;2023-05-15T07:01:03;17.30;99.90
18839;DHT22;9548;56.920;14.804;2023-05-15T07:03:32;17.30;99.90
18839;DHT22;9548;56.920;14.804;2023-05-15T07:05:59;17.30;99.90
18839;DHT22;9548;56.920;14.804;2023-05-15T07:08:26;17.50;99.90
18839;DHT22;9548;56.920;14.804;2023-05-15T07:10:53;17.70;99.90
18839;DHT22;9548;56.920;14.804;2023-05-15T07:13:20;17.90;99.90
18839;DHT22;9548;56.920;14.804;2023-05-15T07:15:47;18.20;99.90
18839;DHT22;9548;56.920;14.804;2023-05-15T07:18:13;18.40;99.90
18839;DHT22;9548;56.920;14.804;2023-05-15T07:20:42;18.70;99.90
18839;DHT22;9548;56.920;14.804;2023-05-15T07:23:09;18.90;99.90
18839;DHT22;9548;56.920;14.804;2023-05-15T07:25:35;19.20;99.90
18839;DHT22;9548;56.920;14.804;2023-05-15T07:28:03;19.30;99.90
18839;DHT22;9548;56.920;14.804;2023-05-15T07:30:30;19.30;99.90
18839;DHT22;9548;56.920;14.804;2023-05-15T07:32:56;19.40;99.90
18839;DHT22;9548;56.920;14.804;2023-05-15T07:35:24;19.50;99.90
18839;DHT22;9548;56.920;14.804;2023-05-15T07:37:52;19.70;99.90
18839;DHT22;9548;56.920;14.804;2023-05-15T07:40:19;19.70;99.90
18839;DHT22;9548;56.920;14.804;2023-05-15T07:42:46;19.70;99.90
18839;DHT22;9548;56.920;14.804;2023-05-15T07:45:13;19.60;99.90
18839;DHT22;9548;56.920;14.804;2023-05-15T07:47:44;19.60;99.90
18839;DHT22;9548;56.920;14.804;2023-05-15T07:50:11;19.70;99.90
18839;DHT22;9548;56.920;14.804;2023-05-15T07:52:38;20.00;99.90
18839;DHT22;9548;56.920;14.804;2023-05-15T07:55:07;20.40;99.90
18839;DHT22;9548;56.920;14.804;2023-05-15T07:57:34;20.60;99.90
18839;DHT22;9548;56.920;14.804;2023-05-15T08:00:01;20.60;99.10
18839;DHT22;9548;56.920;14.804;2023-05-15T08:02:34;20.60;98.50
18839;DHT22;9548;56.920;14.804;2023-05-15T08:05:01;20.60;98.70
18839;DHT22;9548;56.920;14.804;2023-05-15T08:07:30;20.60;97.70
18839;DHT22;9548;56.920;14.804;2023-05-15T08:09:57;20.60;97.60
18839;DHT22;9548;56.920;14.804;2023-05-15T08:12:25;20.40;96.70
18839;DHT22;9548;56.920;14.804;2023-05-15T08:14:53;20.30;97.40
18839;DHT22;9548;56.920;14.804;2023-05-15T08:17:21;20.40;98.10
18839;DHT22;9548;56.920;14.804;2023-05-15T08:19:48;20.80;98.20
18839;DHT22;9548;56.920;14.804;2023-05-15T08:22:15;21.10;95.90
18839;DHT22;9548;56.920;14.804;2023-05-15T08:24:43;21.20;93.20
18839;DHT22;9548;56.920;14.804;2023-05-15T08:27:10;21.00;93.20
18839;DHT22;9548;56.920;14.804;2023-05-15T08:29:38;20.80;92.80
18839;DHT22;9548;56.920;14.804;2023-05-15T08:32:06;20.60;93.10
18839;DHT22;9548;56.920;14.804;2023-05-15T08:34:33;20.70;93.50
18839;DHT22;9548;56.920;14.804;2023-05-15T08:37:00;20.90;93.30
18839;DHT22;9548;56.920;14.804;2023-05-15T08:39:26;21.10;93.70
18839;DHT22;9548;56.920;14.804;2023-05-15T08:41:57;21.30;91.40
18839;DHT22;9548;56.920;14.804;2023-05-15T08:44:24;21.30;91.30
18839;DHT22;9548;56.920;14.804;2023-05-15T08:46:53;21.40;91.70
18839;DHT22;9548;56.920;14.804;2023-05-15T08:49:29;21.80;91.90
18839;DHT22;9548;56.920;14.804;2023-05-15T08:51:57;22.50;91.20
18839;DHT22;9548;56.920;14.804;2023-05-15T08:54:24;23.00;89.90
18839;DHT22;9548;56.920;14.804;2023-05-15T08:56:51;23.20;89.50
18839;DHT22;9548;56.920;14.804;2023-05-15T08:59:19;23.40;88.80
18839;DHT22;9548;56.920;14.804;2023-05-15T09:01:46;23.10;85.40
18839;DHT22;9548;56.920;14.804;2023-05-15T09:04:15;22.80;85.90
18839;DHT22;9548;56.920;14.804;2023-05-15T09:06:43;22.20;84.50
18839;DHT22;9548;56.920;14.804;2023-05-15T09:09:11;21.80;84.90
18839;DHT22;9548;56.920;14.804;2023-05-15T09:11:42;21.50;85.40
18839;DHT22;9548;56.920;14.804;2023-05-15T09:14:09;21.50;86.40
18839;DHT22;9548;56.920;14.804;2023-05-15T09:16:37;21.50;86.40
18839;DHT22;9548;56.920;14.804;2023-05-15T09:19:04;21.60;86.40
18839;DHT22;9548;56.920;14.804;2023-05-15T09:21:33;21.90;87.50
18839;DHT22;9548;56.920;14.804;2023-05-15T09:24:17;22.00;83.70
18839;DHT22;9548;56.920;14.804;2023-05-15T09:26:44;22.10;82.30
18839;DHT22;9548;56.920;14.804;2023-05-15T09:29:15;22.50;82.00
18839;DHT22;9548;56.920;14.804;2023-05-15T09:31:42;23.20;79.60
18839;DHT22;9548;56.920;14.804;2023-05-15T09:34:09;23.60;77.40
18839;DHT22;9548;56.920;14.804;2023-05-15T09:36:41;23.70;77.40
18839;DHT22;9548;56.920;14.804;2023-05-15T09:39:08;23.70;76.60
18839;DHT22;9548;56.920;14.804;2023-05-15T09:41:41;23.60;76.50
18839;DHT22;9548;56.920;14.804;2023-05-15T09:44:17;24.30;76.40
18839;DHT22;9548;56.920;14.804;2023-05-15T09:46:45;25.10;74.90
18839;DHT22;9548;56.920;14.804;2023-05-15T09:49:12;25.60;72.00
18839;DHT22;9548;56.920;14.804;2023-05-15T09:51:42;25.60;70.90
18839;DHT22;9548;56.920;14.804;2023-05-15T09:54:13;25.60;71.60
18839;DHT22;9548;56.920;14.804;2023-05-15T09:56:42;26.50;71.70
18839;DHT22;9548;56.920;14.804;2023-05-15T09:59:12;27.80;69.30
18839;DHT22;9548;56.920;14.804;2023-05-15T10:01:41;28.60;64.90
18839;DHT22;9548;56.920;14.804;2023-05-15T10:04:11;29.20;62.20
18839;DHT22;9548;56.920;14.804;2023-05-15T10:06:40;29.50;61.10
18839;DHT22;9548;56.920;14.804;2023-05-15T10:09:08;29.50;60.70
18839;DHT22;9548;56.920;14.804;2023-05-15T10:11:37;29.00;59.90
18839;DHT22;9548;56.920;14.804;2023-05-15T10:14:05;28.30;60.00
18839;DHT22;9548;56.920;14.804;2023-05-15T10:16:34;27.20;60.20
18839;DHT22;9548;56.920;14.804;2023-05-15T10:19:03;26.30;62.50
18839;DHT22;9548;56.920;14.804;2023-05-15T10:21:31;25.40;63.40
18839;DHT22;9548;56.920;14.804;2023-05-15T10:24:00;24.60;65.80
18839;DHT22;9548;56.920;14.804;2023-05-15T10:26:34;24.40;67.30
18839;DHT22;9548;56.920;14.804;2023-05-15T10:29:04;24.40;68.60
18839;DHT22;9548;56.920;14.804;2023-05-15T10:31:32;24.30;68.50
18839;DHT22;9548;56.920;14.804;2023-05-15T10:34:00;24.40;70.10
18839;DHT22;9548;56.920;14.804;2023-05-15T10:36:27;24.50;69.80
18839;DHT22;9548;56.920;14.804;2023-05-15T10:38:54;24.50;68.70
18839;DHT22;9548;56.920;14.804;2023-05-15T10:41:24;24.90;69.30
18839;DHT22;9548;56.920;14.804;2023-05-15T10:43:52;25.20;68.00
18839;DHT22;9548;56.920;14.804;2023-05-15T10:46:20;25.40;65.90
18839;DHT22;9548;56.920;14.804;2023-05-15T10:48:47;25.50;66.80
18839;DHT22;9548;56.920;14.804;2023-05-15T10:51:15;25.30;65.30
18839;DHT22;9548;56.920;14.804;2023-05-15T10:53:43;24.90;66.30
18839;DHT22;9548;56.920;14.804;2023-05-15T10:56:14;24.40;66.20
18839;DHT22;9548;56.920;14.804;2023-05-15T10:58:46;23.90;67.80
18839;DHT22;9548;56.920;14.804;2023-05-15T11:01:32;24.00;69.60
18839;DHT22;9548;56.920;14.804;2023-05-15T11:04:07;24.20;70.60
18839;DHT22;9548;56.920;14.804;2023-05-15T11:06:35;24.40;69.60
18839;DHT22;9548;56.920;14.804;2023-05-15T11:09:36;25.00;68.50
18839;DHT22;9548;56.920;14.804;2023-05-15T11:12:05;25.60;67.00
18839;DHT22;9548;56.920;14.804;2023-05-15T11:14:35;26.50;65.10
18839;DHT22;9548;56.920;14.804;2023-05-15T11:17:04;26.50;64.00
18839;DHT22;9548;56.920;14.804;2023-05-15T11:19:36;26.20;62.30
18839;DHT22;9548;56.920;14.804;2023-05-15T11:22:16;26.20;62.60
18839;DHT22;9548;56.920;14.804;2023-05-15T11:24:48;26.60;62.10
18839;DHT22;9548;56.920;14.804;2023-05-15T11:27:20;26.90;61.50
18839;DHT22;9548;56.920;14.804;2023-05-15T11:30:09;27.30;60.70
18839;DHT22;9548;56.920;14.804;2023-05-15T11:32:47;29.20;59.50
18839;DHT22;9548;56.920;14.804;2023-05-15T11:35:18;30.40;56.40
18839;DHT22;9548;56.920;14.804;2023-05-15T11:37:48;30.70;55.90
18839;DHT22;9548;56.920;14.804;2023-05-15T11:40:19;31.00;54.90
18839;DHT22;9548;56.920;14.804;2023-05-15T11:43:17;30.50;54.70
18839;DHT22;9548;56.920;14.804;2023-05-15T11:45:47;31.00;55.40
18839;DHT22;9548;56.920;14.804;2023-05-15T11:48:16;30.20;54.80
18839;DHT22;9548;56.920;14.804;2023-05-15T11:50:43;29.70;54.70
18839;DHT22;9548;56.920;14.804;2023-05-15T11:53:11;30.10;56.00
18839;DHT22;9548;56.920;14.804;2023-05-15T11:55:39;32.00;55.00
18839;DHT22;9548;56.920;14.804;2023-05-15T11:58:10;34.50;52.10
18839;DHT22;9548;56.920;14.804;2023-05-15T12:00:38;36.80;48.70
18839;DHT22;9548;56.920;14.804;2023-05-15T12:03:12;37.60;45.70
18839;DHT22;9548;56.920;14.804;2023-05-15T12:05:40;36.80;44.90
18839;DHT22;9548;56.920;14.804;2023-05-15T12:08:09;36.30;45.50
18839;DHT22;9548;56.920;14.804;2023-05-15T12:10:39;37.50;45.00
18839;DHT22;9548;56.920;14.804;2023-05-15T12:13:06;38.70;42.70
18839;DHT22;9548;56.920;14.804;2023-05-15T12:15:36;38.40;41.90
18839;DHT22;9548;56.920;14.804;2023-05-15T12:18:03;37.50;42.40
18839;DHT22;9548;56.920;14.804;2023-05-15T12:20:34;35.70;43.40
18839;DHT22;9548;56.920;14.804;2023-05-15T12:23:02;33.90;44.40
18839;DHT22;9548;56.920;14.804;2023-05-15T12:25:32;32.40;45.90
18839;DHT22;9548;56.920;14.804;2023-05-15T12:28:01;31.50;47.70
18839;DHT22;9548;56.920;14.804;2023-05-15T12:30:29;30.80;48.40
18839;DHT22;9548;56.920;14.804;2023-05-15T12:33:00;29.80;48.80
18839;DHT22;9548;56.920;14.804;2023-05-15T12:35:28;28.40;50.20
18839;DHT22;9548;56.920;14.804;2023-05-15T12:37:56;27.70;51.60
18839;DHT22;9548;56.920;14.804;2023-05-15T12:40:23;27.20;51.90
18839;DHT22;9548;56.920;14.804;2023-05-15T12:42:51;26.70;52.80
18839;DHT22;9548;56.920;14.804;2023-05-15T12:45:21;26.30;53.20
18839;DHT22;9548;56.920;14.804;2023-05-15T12:47:49;25.70;53.30
18839;DHT22;9548;56.920;14.804;2023-05-15T12:50:17;25.30;54.20
18839;DHT22;9548;56.920;14.804;2023-05-15T12:52:49;25.10;55.70
18839;DHT22;9548;56.920;14.804;2023-05-15T12:55:21;25.30;55.00
18839;DHT22;9548;56.920;14.804;2023-05-15T12:57:48;25.40;54.80
18839;DHT22;9548;56.920;14.804;2023-05-15T13:00:15;25.80;54.40
18839;DHT22;9548;56.920;14.804;2023-05-15T13:02:43;26.00;53.70
18839;DHT22;9548;56.920;14.804;2023-05-15T13:05:10;26.50;53.20
18839;DHT22;9548;56.920;14.804;2023-05-15T13:07:39;27.00;52.70
18839;DHT22;9548;56.920;14.804;2023-05-15T13:10:08;26.90;52.30
18839;DHT22;9548;56.920;14.804;2023-05-15T13:12:37;27.00;53.10
18839;DHT22;9548;56.920;14.804;2023-05-15T13:15:06;27.20;52.30
18839;DHT22;9548;56.920;14.804;2023-05-15T13:17:33;26.70;51.80
18839;DHT22;9548;56.920;14.804;2023-05-15T13:20:00;25.80;52.20
18839;DHT22;9548;56.920;14.804;2023-05-15T13:22:29;25.80;53.40
18839;DHT22;9548;56.920;14.804;2023-05-15T13:24:57;26.40;53.90
18839;DHT22;9548;56.920;14.804;2023-05-15T13:27:24;28.00;52.00
18839;DHT22;9548;56.920;14.804;2023-05-15T13:29:52;30.10;49.30
18839;DHT22;9548;56.920;14.804;2023-05-15T13:32:19;31.40;48.40
18839;DHT22;9548;56.920;14.804;2023-05-15T13:34:46;31.90;46.60
18839;DHT22;9548;56.920;14.804;2023-05-15T13:37:14;31.40;46.30
18839;DHT22;9548;56.920;14.804;2023-05-15T13:39:41;30.80;46.70
18839;DHT22;9548;56.920;14.804;2023-05-15T13:42:08;29.50;47.90
18839;DHT22;9548;56.920;14.804;2023-05-15T13:44:35;28.10;48.70
18839;DHT22;9548;56.920;14.804;2023-05-15T13:47:04;27.60;50.10
18839;DHT22;9548;56.920;14.804;2023-05-15T13:49:31;26.60;51.30
18839;DHT22;9548;56.920;14.804;2023-05-15T13:51:57;26.40;51.90
18839;DHT22;9548;56.920;14.804;2023-05-15T13:54:24;26.20;52.20
18839;DHT22;9548;56.920;14.804;2023-05-15T13:56:51;25.80;52.20
18839;DHT22;9548;56.920;14.804;2023-05-15T13:59:18;25.60;53.40
18839;DHT22;9548;56.920;14.804;2023-05-15T14:01:46;25.70;53.40
18839;DHT22;9548;56.920;14.804;2023-05-15T14:04:14;26.10;53.30
18839;DHT22;9548;56.920;14.804;2023-05-15T14:06:41;26.80;52.00
18839;DHT22;9548;56.920;14.804;2023-05-15T14:09:08;29.00;50.90
18839;DHT22;9548;56.920;14.804;2023-05-15T14:11:34;32.00;48.70
18839;DHT22;9548;56.920;14.804;2023-05-15T14:14:01;33.80;45.50
18839;DHT22;9548;56.920;14.804;2023-05-15T14:16:28;33.80;44.80
18839;DHT22;9548;56.920;14.804;2023-05-15T14:18:55;33.90;44.40
18839;DHT22;9548;56.920;14.804;2023-05-15T14:21:23;33.50;44.70
18839;DHT22;9548;56.920;14.804;2023-05-15T14:23:50;33.50;44.60
18839;DHT22;9548;56.920;14.804;2023-05-15T14:26:17;33.80;44.10
18839;DHT22;9548;56.920;14.804;2023-05-15T14:28:44;34.70;43.80
18839;DHT22;9548;56.920;14.804;2023-05-15T14:31:11;34.80;42.90
18839;DHT22;9548;56.920;14.804;2023-05-15T14:33:39;34.40;43.50
18839;DHT22;9548;56.920;14.804;2023-05-15T14:36:06;33.70;44.10
18839;DHT22;9548;56.920;14.804;2023-05-15T14:38:36;32.40;44.20
18839;DHT22;9548;56.920;14.804;2023-05-15T14:41:03;31.30;45.40
18839;DHT22;9548;56.920;14.804;2023-05-15T14:43:30;30.50;46.50
18839;DHT22;9548;56.920;14.804;2023-05-15T14:45:57;29.70;46.90
18839;DHT22;9548;56.920;14.804;2023-05-15T14:48:24;29.10;47.40
18839;DHT22;9548;56.920;14.804;2023-05-15T14:50:51;28.50;48.60
18839;DHT22;9548;56.920;14.804;2023-05-15T14:53:18;28.20;49.70
18839;DHT22;9548;56.920;14.804;2023-05-15T14:55:46;27.90;49.80
18839;DHT22;9548;56.920;14.804;2023-05-15T14:58:13;27.50;50.10
18839;DHT22;9548;56.920;14.804;2023-05-15T15:00:40;27.00;51.00
18839;DHT22;9548;56.920;14.804;2023-05-15T15:03:07;26.80;51.70
18839;DHT22;9548;56.920;14.804;2023-05-15T15:05:34;26.50;55.20
18839;DHT22;9548;56.920;14.804;2023-05-15T15:08:02;26.00;60.10
18839;DHT22;9548;56.920;14.804;2023-05-15T15:10:30;25.30;61.90
18839;DHT22;9548;56.920;14.804;2023-05-15T15:12:59;24.60;67.70
18839;DHT22;9548;56.920;14.804;2023-05-15T15:15:27;24.00;75.90
18839;DHT22;9548;56.920;14.804;2023-05-15T15:17:54;23.30;78.90
18839;DHT22;9548;56.920;14.804;2023-05-15T15:20:22;22.40;79.30
18839;DHT22;9548;56.920;14.804;2023-05-15T15:22:50;21.60;74.60
18839;DHT22;9548;56.920;14.804;2023-05-15T15:25:18;21.10;77.50
18839;DHT22;9548;56.920;14.804;2023-05-15T15:27:45;20.70;81.90
18839;DHT22;9548;56.920;14.804;2023-05-15T15:30:15;20.30;80.70
18839;DHT22;9548;56.920;14.804;2023-05-15T15:32:42;19.80;88.70
18839;DHT22;9548;56.920;14.804;2023-05-15T15:35:10;19.50;83.70
18839;DHT22;9548;56.920;14.804;2023-05-15T15:37:37;19.10;91.40
18839;DHT22;9548;56.920;14.804;2023-05-15T15:40:06;19.00;89.90